Observations for Trim Market St
| Time | AQI | Temp °C | Hum % | Pres Pa | CO μg/m³ | H₂S μg/m³ | NO μg/m³ | NO₂ μg/m³ | O₃ μg/m³ | SO₂ μg/m³ | PM1 μg/m³ | PM2.5 μg/m³ | PM10 μg/m³ |
|---|---|---|---|---|---|---|---|---|---|---|---|---|---|
| Tuesday 14 July 2026 | |||||||||||||
| 08:43 | 1 | 28.4 | 44 | 63,064 | 0 | 0 | 0 | 0 | 0.77 | 0 | 2.85 | 5.31 | 6.75 |
| 08:42 | 1 | 28.4 | 44 | 62,853 | 0 | 0 | 0 | 0 | 0 | 0 | 2.85 | 5.82 | 8.3 |
| 08:40 | 1 | 28.2 | 45 | 62,286 | 0 | 0 | 0 | 0 | 0 | 0 | 3.56 | 6.32 | 7.53 |
| 08:38 | 1 | 28 | 45 | 61,802 | 0 | 0 | 0 | 0 | 0 | 0 | 2.85 | 5.78 | 7.53 |
| 08:35 | 1 | 27.8 | 46 | 61,159 | 0 | 0 | 0 | 0 | 2.14 | 0 | 2.14 | 5.75 | 6.76 |
| 08:26 | 1 | 27.1 | 48 | 57,982 | 0.04 | 0 | 0 | 0 | 0 | 0 | 2.85 | 5.63 | 6.77 |
| 08:25 | 1 | 27 | 48 | 57,520 | 0.03 | 0 | 0 | 0 | 0 | 0 | 4.28 | 6.14 | 7.53 |
| 08:23 | 1 | 26.8 | 49 | 56,817 | 0.09 | 0 | 0 | 0 | 0 | 0 | 3.56 | 6.11 | 9.78 |
| 08:20 | 1 | 26.5 | 50 | 56,251 | 0.04 | 0 | 0 | 0 | 0 | 0 | 1.43 | 5.05 | 6.78 |
| 08:19 | 1 | 26.4 | 50 | 56,041 | 0.07 | 0 | 0 | 0 | 0 | 0 | 2.14 | 5.04 | 6.03 |
| 08:18 | 1 | 26.3 | 50 | 55,915 | 0.16 | 0 | 0 | 0 | 0 | 0 | 2.85 | 5.03 | 6.04 |
| 08:17 | 1 | 26.2 | 50 | 55,717 | 0.07 | 0 | 0 | 0 | 0 | 0 | 2.85 | 5.01 | 7.53 |
| 08:16 | 1 | 26.1 | 51 | 55,765 | 0.05 | 0 | 0 | 0 | 0.91 | 0 | 1.43 | 3.97 | 5.3 |
| 08:15 | 1 | 25.9 | 51 | 55,799 | 0.06 | 0 | 0 | 0 | 0 | 0 | 2.85 | 5.5 | 6.79 |
| 08:14 | 1 | 25.8 | 51 | 55,884 | 0.06 | 0 | 0 | 0 | 1.24 | 0 | 2.14 | 4.97 | 6.79 |
| 08:13 | 1 | 25.7 | 51 | 55,910 | 0.06 | 0 | 0 | 0 | 0 | 0 | 2.85 | 5.47 | 6.79 |
| 08:12 | 1 | 25.6 | 52 | 56,030 | 0.09 | 0 | 0 | 0 | 0 | 0 | 4.28 | 6.99 | 9 |
| 08:11 | 1 | 25.5 | 52 | 56,164 | 0.09 | 0 | 0 | 0 | 0 | 0 | 2.85 | 5.44 | 7.53 |
| 08:10 | 1 | 25.4 | 52 | 56,210 | 0.09 | 0 | 0 | 0 | 0 | 0 | 2.14 | 4.92 | 6.06 |
| 08:09 | 1 | 25.3 | 53 | 56,353 | 0.12 | 0 | 0 | 0 | 0 | 0 | 4.28 | 5.91 | 7.53 |